createdAt,value
2023-03-11T00:01:23.346Z,100812.44
2023-03-11T00:06:26.566Z,100814.81
2023-03-11T00:11:29.682Z,100810.22
2023-03-11T00:16:32.692Z,100810.94
2023-03-11T00:21:35.744Z,100832.66
2023-03-11T00:26:38.755Z,100832.66
2023-03-11T00:31:41.695Z,100825.91
2023-03-11T00:36:44.702Z,100813.28
2023-03-11T00:41:47.779Z,100824.59
2023-03-11T00:46:50.746Z,100810.81
2023-03-11T00:51:53.704Z,100814.97
2023-03-11T00:56:56.848Z,100829.84
2023-03-11T01:02:00.124Z,100847.38
2023-03-11T01:07:03.748Z,100841.19
2023-03-11T01:12:06.808Z,100847.47
2023-03-11T01:17:10.914Z,100850.91
2023-03-11T01:22:14.068Z,100867.56
2023-03-11T01:27:17.053Z,100855.38
2023-03-11T01:32:20.145Z,100873.75
2023-03-11T01:37:23.496Z,100882.09
2023-03-11T01:42:26.547Z,100887.88
2023-03-11T01:47:38.921Z,100910.94
2023-03-11T01:52:44.569Z,100884.97
2023-03-11T01:57:48.527Z,100891.56
2023-03-11T02:02:54.106Z,100918.03
2023-03-11T02:07:58.612Z,100904.09
2023-03-11T02:13:06.748Z,100929.09
2023-03-11T02:18:12.709Z,100920.13
2023-03-11T02:23:19.042Z,100921.22
2023-03-11T02:28:23.627Z,100919.88
2023-03-11T02:33:30.291Z,100900.78
2023-03-11T02:38:33.646Z,100916.25
2023-03-11T02:43:44.121Z,100900.06
2023-03-11T02:48:49.453Z,100921.38
2023-03-11T02:53:57.987Z,100891.16
2023-03-11T02:59:02.011Z,100900.84
2023-03-11T03:04:06.314Z,100920.53
2023-03-11T03:09:10.062Z,100897.50
2023-03-11T03:14:13.197Z,100899.41
2023-03-11T03:19:16.380Z,100874.03
2023-03-11T03:24:19.464Z,100902.53
2023-03-11T03:29:22.753Z,100898.06
2023-03-11T03:34:26.354Z,100918.66
2023-03-11T03:39:30.707Z,100903.19
2023-03-11T03:44:34.751Z,100919.28
2023-03-11T03:49:38.875Z,100927.47
2023-03-11T03:54:42.673Z,100954.16
2023-03-11T03:59:45.809Z,100959.69
2023-03-11T04:04:49.033Z,100938.13
2023-03-11T04:09:52.071Z,100960.78
2023-03-11T04:14:55.216Z,100968.81
2023-03-11T04:19:59.171Z,100967.78
2023-03-11T04:25:03.061Z,100962.16
2023-03-11T04:30:09.178Z,100965.53
2023-03-11T04:35:12.308Z,100991.41
2023-03-11T04:40:16.192Z,100973.75
2023-03-11T04:45:19.368Z,100979.94
2023-03-11T04:50:24.118Z,101008.97
2023-03-11T04:55:27.996Z,100994.53
2023-03-11T05:00:31.090Z,101009.50
2023-03-11T05:05:40.598Z,101025.66
2023-03-11T05:10:44.763Z,101032.69
2023-03-11T05:15:49.187Z,101014.53
2023-03-11T05:20:53.654Z,101024.75
2023-03-11T05:26:00.926Z,101033.97
2023-03-11T05:31:09.703Z,101024.75
2023-03-11T05:36:17.024Z,101026.88
2023-03-11T05:41:21.302Z,101026.16
2023-03-11T05:46:24.486Z,101023.63
2023-03-11T05:51:28.727Z,101042.59
2023-03-11T05:56:31.998Z,101034.06
2023-03-11T06:01:35.762Z,101045.25
2023-03-11T06:06:41.565Z,101040.78
2023-03-11T06:11:45.284Z,101061.94
2023-03-11T06:16:50.297Z,101057.47
2023-03-11T06:21:55.535Z,101044.53
2023-03-11T06:26:58.711Z,101035.88
2023-03-11T06:32:04.360Z,101044.69
2023-03-11T06:37:07.485Z,101073.72
2023-03-11T06:42:11.578Z,101044.81
2023-03-11T06:47:14.913Z,101050.66
2023-03-11T06:52:18.222Z,101042.06
2023-03-11T06:57:21.980Z,101041.22
2023-03-11T07:02:27.100Z,101051.72
2023-03-11T07:07:30.261Z,101033.44
2023-03-11T07:12:33.848Z,101061.31
2023-03-11T07:17:37.427Z,101053.88
2023-03-11T07:22:40.467Z,101027.63
2023-03-11T07:27:43.369Z,101043.69
2023-03-11T07:32:46.482Z,101033.38
2023-03-11T07:37:49.463Z,101011.63
2023-03-11T07:42:52.568Z,101017.25
2023-03-11T07:47:57.648Z,101007.19
2023-03-11T07:53:00.625Z,101017.25
2023-03-11T07:58:03.781Z,101013.81
2023-03-11T08:03:06.782Z,100985.31
2023-03-11T08:08:10.111Z,100988.53
2023-03-11T08:13:13.059Z,101014.91
2023-03-11T08:18:17.078Z,100983.81
2023-03-11T08:23:20.162Z,101003.41
2023-03-11T08:28:23.239Z,100991.41
2023-03-11T08:33:26.338Z,101006.88
2023-03-11T08:38:29.387Z,100995.69
2023-03-11T08:43:32.567Z,101002.72
2023-03-11T08:48:38.035Z,100997.56
2023-03-11T08:53:41.056Z,101003.75
2023-03-11T08:58:44.150Z,100991.97
2023-03-11T09:03:47.210Z,100990.25
2023-03-11T09:08:50.680Z,100989.84
2023-03-11T09:13:53.729Z,100984.97
2023-03-11T09:18:56.971Z,101002.09
2023-03-11T09:24:00.598Z,101000.00
2023-03-11T09:29:03.761Z,100996.66
2023-03-11T09:34:06.776Z,100971.06
2023-03-11T09:39:10.037Z,100977.84
2023-03-11T09:44:20.406Z,100976.56
2023-03-11T09:49:38.310Z,100978.88
2023-03-11T09:54:45.757Z,100948.84
2023-03-11T09:59:49.633Z,100945.56
2023-03-11T10:04:57.070Z,100938.53
2023-03-11T10:10:00.712Z,100967.41
2023-03-11T10:15:49.825Z,100966.75
2023-03-11T10:21:32.065Z,100962.34
2023-03-11T10:26:44.069Z,100948.88
2023-03-11T10:31:59.191Z,100961.09
2023-03-11T10:37:20.567Z,100958.84
2023-03-11T10:42:28.872Z,100946.72
2023-03-11T10:47:31.840Z,100944.97
2023-03-11T10:52:45.017Z,100934.81
2023-03-11T10:57:48.036Z,100943.06
2023-03-11T11:02:53.770Z,100943.19
2023-03-11T11:08:14.780Z,100932.00
2023-03-11T11:13:21.101Z,100920.91
2023-03-11T11:18:29.613Z,100921.81
2023-03-11T11:24:02.963Z,100925.28
2023-03-11T11:29:10.484Z,100913.19
2023-03-11T11:34:32.815Z,100918.66
2023-03-11T11:40:11.694Z,100912.78
2023-03-11T11:45:59.768Z,100914.72
2023-03-11T11:51:15.711Z,100912.94
2023-03-11T11:56:18.866Z,100913.34
2023-03-11T12:01:49.124Z,100920.53
2023-03-11T12:07:14.803Z,100930.56
2023-03-11T12:12:48.372Z,100940.91
2023-03-11T12:17:55.121Z,100924.63
2023-03-11T12:23:12.990Z,100929.78
2023-03-11T12:28:16.002Z,100927.78
2023-03-11T12:33:30.724Z,100921.16
2023-03-11T12:38:36.878Z,100916.50
2023-03-11T12:43:42.803Z,100930.00
2023-03-11T12:49:06.990Z,100923.84
2023-03-11T12:54:32.686Z,100920.97
2023-03-11T13:00:18.393Z,100927.25
2023-03-11T13:05:39.615Z,100923.69
2023-03-11T13:10:53.997Z,100912.47
2023-03-11T13:15:57.895Z,100900.31
2023-03-11T13:21:02.727Z,100900.34
2023-03-11T13:26:28.894Z,100925.25
2023-03-11T13:31:43.895Z,100921.09
2023-03-11T13:37:03.887Z,100903.06
2023-03-11T13:42:32.844Z,100916.97
2023-03-11T13:47:37.187Z,100896.78
2023-03-11T13:52:47.435Z,100906.34
2023-03-11T13:57:53.149Z,100908.50
2023-03-11T14:03:00.370Z,100919.38
2023-03-11T14:08:24.538Z,100919.47
2023-03-11T14:13:30.472Z,100905.47
2023-03-11T14:18:35.410Z,100922.19
2023-03-11T14:23:44.382Z,100919.81
2023-03-11T14:28:51.815Z,100917.75
2023-03-11T14:34:04.554Z,100908.19
2023-03-11T14:39:36.561Z,100895.88
2023-03-11T14:44:43.968Z,100916.63
2023-03-11T14:49:49.338Z,100914.69
2023-03-11T14:54:54.120Z,100901.03
2023-03-11T14:59:58.170Z,100922.38
2023-03-11T15:05:08.778Z,100900.78
2023-03-11T15:10:12.732Z,100901.44
2023-03-11T15:15:23.297Z,100921.06
2023-03-11T15:20:40.464Z,100899.69
2023-03-11T15:25:50.396Z,100912.13
2023-03-11T15:31:16.397Z,100933.53
2023-03-11T15:36:34.422Z,100946.09
2023-03-11T15:41:37.549Z,100914.00
2023-03-11T15:46:40.484Z,100945.69
2023-03-11T15:51:43.450Z,100946.53
2023-03-11T15:56:46.604Z,100936.13
2023-03-11T16:01:49.564Z,100941.25
2023-03-11T16:07:07.125Z,100948.44
2023-03-11T16:12:23.534Z,100930.25
2023-03-11T16:17:28.657Z,100938.72
2023-03-11T16:22:38.494Z,100940.25
2023-03-11T16:27:42.594Z,100929.34
2023-03-11T16:32:45.710Z,100945.88
2023-03-11T16:37:49.093Z,100942.81
2023-03-11T16:42:56.185Z,100943.16
2023-03-11T16:48:00.314Z,100918.97
2023-03-11T16:53:03.432Z,100913.22
2023-03-11T16:58:06.774Z,100932.69
2023-03-11T17:03:14.241Z,100941.78
2023-03-11T17:08:18.624Z,100928.88
2023-03-11T17:13:21.666Z,100931.88
2023-03-11T17:18:24.673Z,100925.97
2023-03-11T17:23:27.675Z,100935.91
2023-03-11T17:28:30.695Z,100927.97
2023-03-11T17:33:34.274Z,100907.03
2023-03-11T17:38:37.285Z,100914.03
2023-03-11T17:43:40.771Z,100904.56
2023-03-11T17:48:45.584Z,100913.00
2023-03-11T17:53:49.682Z,100897.53
2023-03-11T17:58:52.754Z,100905.59
2023-03-11T18:03:56.591Z,100922.56
2023-03-11T18:08:59.808Z,100900.03
2023-03-11T18:14:02.852Z,100923.03
2023-03-11T18:19:06.002Z,100896.16
2023-03-11T18:24:09.092Z,100909.81
2023-03-11T18:29:12.050Z,100900.59
2023-03-11T18:34:15.266Z,100912.00
2023-03-11T18:39:18.242Z,100904.34
2023-03-11T18:44:21.838Z,100906.91
2023-03-11T18:49:24.803Z,100887.03
2023-03-11T18:54:28.903Z,100901.63
2023-03-11T18:59:32.041Z,100883.34
2023-03-11T19:04:35.144Z,100879.69
2023-03-11T19:09:38.214Z,100877.38
2023-03-11T19:14:41.269Z,100890.81
2023-03-11T19:19:44.435Z,100888.69
2023-03-11T19:24:47.395Z,100888.25
2023-03-11T19:29:50.336Z,100870.44
2023-03-11T19:34:53.347Z,100885.56
2023-03-11T19:39:56.400Z,100834.66
2023-03-11T19:44:59.408Z,100858.31
2023-03-11T19:50:02.392Z,100835.16
2023-03-11T19:55:07.077Z,100847.47
2023-03-11T20:00:10.800Z,100864.94
2023-03-11T20:05:13.936Z,100860.75
2023-03-11T20:10:17.695Z,100854.19
2023-03-11T20:15:20.805Z,100852.75
2023-03-11T20:20:24.060Z,100855.47
2023-03-11T20:25:29.914Z,100839.25
2023-03-11T20:30:33.043Z,100841.97
2023-03-11T20:35:36.065Z,100825.84
2023-03-11T20:40:39.512Z,100832.06
2023-03-11T20:45:42.588Z,100833.97
2023-03-11T20:50:45.616Z,100833.06
2023-03-11T20:55:48.719Z,100803.56
2023-03-11T21:00:51.906Z,100804.59
2023-03-11T21:05:55.021Z,100824.56
2023-03-11T21:11:01.642Z,100826.34
2023-03-11T21:16:06.116Z,100803.72
2023-03-11T21:21:10.921Z,100806.28
2023-03-11T21:26:15.451Z,100801.66
2023-03-11T21:31:25.159Z,100811.22
2023-03-11T21:36:29.985Z,100800.78
2023-03-11T21:41:33.089Z,100810.28
2023-03-11T21:46:36.137Z,100786.81
2023-03-11T21:51:39.241Z,100785.94
2023-03-11T21:56:42.614Z,100777.28
2023-03-11T22:01:45.742Z,100773.72
2023-03-11T22:06:48.841Z,100770.13
2023-03-11T22:11:51.941Z,100772.75
2023-03-11T22:16:55.181Z,100773.78
2023-03-11T22:21:58.523Z,100773.09
2023-03-11T22:27:01.539Z,100783.78
2023-03-11T22:32:04.716Z,100798.81
2023-03-11T22:37:08.615Z,100784.97
2023-03-11T22:42:12.609Z,100778.63
2023-03-11T22:47:15.680Z,100771.81
2023-03-11T22:52:18.636Z,100798.44
2023-03-11T22:57:21.939Z,100802.06
2023-03-11T23:02:24.964Z,100787.50
2023-03-11T23:07:27.963Z,100783.31
2023-03-11T23:12:30.913Z,100758.19
2023-03-11T23:17:34.370Z,100771.13
2023-03-11T23:22:38.808Z,100769.50
2023-03-11T23:27:43.624Z,100742.88
2023-03-11T23:32:46.704Z,100738.50
2023-03-11T23:37:50.985Z,100747.53
2023-03-11T23:42:54.026Z,100717.75
2023-03-11T23:47:57.033Z,100737.47
2023-03-11T23:52:59.971Z,100726.84
2023-03-11T23:58:02.945Z,100723.50
